LIBD/BRI METAR and TAF weather

Enter ICAO airport designator
Station Type Date Time Source
LIBD METAR 2022/07/01 02:20 UTC NOAA

LIBD 010220Z 22002KT CAVOK 23/22 Q1012


Station Type Date Time Source
LIBD Decoded METAR 2022/07/01 02:20 UTC NOAA

Bari / Palese Macchie, Italy (LIBD) 41-08N 016-47E 49M
Jun 30, 2022 - 10:20 PM EDT / 2022.07.01 0220 UTC
Wind: from the SW (220 degrees) at 2 MPH (2 KT):0
Visibility: greater than 7 mile(s):0
Temperature: 73 F (23 C)
Dew Point: 71 F (22 C)
Relative Humidity: 94%
Pressure (altimeter): 29.88 in. Hg (1012 hPa)
ob: LIBD 010220Z 22002KT CAVOK 23/22 Q1012
cycle: 2

Station Type Date Time Source
LIBD TAF 2022/06/30 18:22 UTC NOAA

TAF LIBD 301700Z 3018/0118 VRB05KT 9999 FEW020
TEMPO 0100/0105 3000 BR
BECMG 0107/0109 07010KT

Example: see airport list